sensor_id;sensor_type;location;lat;lon;timestamp;pressure;altitude;pressure_sealevel;temperature;humidity
10348;BME280;5220;43.192;23.284;2023-03-31T00:01:50;96854.72;;;11.23;100.00
10348;BME280;5220;43.192;23.284;2023-03-31T00:04:18;96842.31;;;11.26;100.00
10348;BME280;5220;43.192;23.284;2023-03-31T00:06:48;96846.44;;;11.18;100.00
10348;BME280;5220;43.192;23.284;2023-03-31T00:09:18;96848.78;;;11.21;100.00
10348;BME280;5220;43.192;23.284;2023-03-31T00:11:46;96847.38;;;11.28;100.00
10348;BME280;5220;43.192;23.284;2023-03-31T00:14:14;96851.19;;;11.35;100.00
10348;BME280;5220;43.192;23.284;2023-03-31T00:16:42;96844.56;;;11.42;100.00
10348;BME280;5220;43.192;23.284;2023-03-31T00:19:10;96853.66;;;11.48;100.00
10348;BME280;5220;43.192;23.284;2023-03-31T00:21:43;96857.78;;;11.50;100.00
10348;BME280;5220;43.192;23.284;2023-03-31T00:24:11;96855.88;;;11.52;100.00
10348;BME280;5220;43.192;23.284;2023-03-31T00:26:39;96863.94;;;11.60;100.00
10348;BME280;5220;43.192;23.284;2023-03-31T00:29:07;96870.78;;;11.61;100.00
10348;BME280;5220;43.192;23.284;2023-03-31T00:31:34;96865.59;;;11.61;100.00
10348;BME280;5220;43.192;23.284;2023-03-31T00:34:03;96863.47;;;11.66;100.00
10348;BME280;5220;43.192;23.284;2023-03-31T00:36:30;96867.00;;;11.65;100.00
10348;BME280;5220;43.192;23.284;2023-03-31T00:39:04;96865.81;;;11.69;100.00
10348;BME280;5220;43.192;23.284;2023-03-31T00:41:33;96868.34;;;11.71;100.00
10348;BME280;5220;43.192;23.284;2023-03-31T00:44:05;96877.81;;;11.72;100.00
10348;BME280;5220;43.192;23.284;2023-03-31T00:46:33;96867.75;;;11.78;100.00
10348;BME280;5220;43.192;23.284;2023-03-31T00:49:01;96872.72;;;11.81;100.00
10348;BME280;5220;43.192;23.284;2023-03-31T00:51:31;96869.84;;;11.84;100.00
10348;BME280;5220;43.192;23.284;2023-03-31T00:54:02;96870.56;;;11.86;100.00
10348;BME280;5220;43.192;23.284;2023-03-31T00:56:34;96876.34;;;11.90;100.00
10348;BME280;5220;43.192;23.284;2023-03-31T00:59:05;96863.31;;;11.90;100.00
10348;BME280;5220;43.192;23.284;2023-03-31T01:01:33;96880.38;;;11.94;100.00
10348;BME280;5220;43.192;23.284;2023-03-31T01:04:01;96885.59;;;11.94;100.00
10348;BME280;5220;43.192;23.284;2023-03-31T01:06:29;96894.13;;;11.96;100.00
10348;BME280;5220;43.192;23.284;2023-03-31T01:08:56;96908.56;;;12.00;100.00
10348;BME280;5220;43.192;23.284;2023-03-31T01:11:26;96918.66;;;11.94;100.00
10348;BME280;5220;43.192;23.284;2023-03-31T01:13:55;96925.28;;;11.86;100.00
10348;BME280;5220;43.192;23.284;2023-03-31T01:16:22;96917.47;;;11.64;100.00
10348;BME280;5220;43.192;23.284;2023-03-31T01:18:49;96915.97;;;11.73;100.00
10348;BME280;5220;43.192;23.284;2023-03-31T01:21:51;96932.69;;;11.70;100.00
10348;BME280;5220;43.192;23.284;2023-03-31T01:24:40;96937.63;;;11.51;100.00
10348;BME280;5220;43.192;23.284;2023-03-31T01:33:19;96938.91;;;11.68;100.00
10348;BME280;5220;43.192;23.284;2023-03-31T01:39:28;96944.88;;;11.70;100.00
10348;BME280;5220;43.192;23.284;2023-03-31T01:42:07;96939.72;;;11.68;100.00
10348;BME280;5220;43.192;23.284;2023-03-31T01:44:43;96946.00;;;11.66;100.00
10348;BME280;5220;43.192;23.284;2023-03-31T01:47:15;96940.56;;;11.69;100.00
10348;BME280;5220;43.192;23.284;2023-03-31T01:49:46;96939.72;;;11.68;100.00
10348;BME280;5220;43.192;23.284;2023-03-31T01:52:19;96943.16;;;11.69;100.00
10348;BME280;5220;43.192;23.284;2023-03-31T01:54:48;96940.94;;;11.64;100.00
10348;BME280;5220;43.192;23.284;2023-03-31T01:57:21;96947.91;;;11.64;100.00
10348;BME280;5220;43.192;23.284;2023-03-31T01:59:53;96940.22;;;11.62;100.00
10348;BME280;5220;43.192;23.284;2023-03-31T02:02:26;96935.13;;;11.61;100.00
10348;BME280;5220;43.192;23.284;2023-03-31T02:04:57;96945.66;;;11.59;100.00
10348;BME280;5220;43.192;23.284;2023-03-31T02:07:28;96951.25;;;11.55;100.00
10348;BME280;5220;43.192;23.284;2023-03-31T02:10:00;96949.56;;;11.54;100.00
10348;BME280;5220;43.192;23.284;2023-03-31T02:12:30;96954.78;;;11.54;100.00
10348;BME280;5220;43.192;23.284;2023-03-31T02:15:01;96952.88;;;11.45;100.00
10348;BME280;5220;43.192;23.284;2023-03-31T02:17:29;96956.91;;;11.49;100.00
10348;BME280;5220;43.192;23.284;2023-03-31T02:20:00;96954.66;;;11.44;100.00
10348;BME280;5220;43.192;23.284;2023-03-31T02:22:35;96952.50;;;11.38;100.00
10348;BME280;5220;43.192;23.284;2023-03-31T02:25:05;96960.94;;;11.42;100.00
10348;BME280;5220;43.192;23.284;2023-03-31T02:27:37;96954.88;;;11.41;100.00
10348;BME280;5220;43.192;23.284;2023-03-31T02:30:07;96958.56;;;11.39;100.00
10348;BME280;5220;43.192;23.284;2023-03-31T02:32:37;96943.75;;;11.39;100.00
10348;BME280;5220;43.192;23.284;2023-03-31T02:35:05;96942.78;;;11.40;100.00
10348;BME280;5220;43.192;23.284;2023-03-31T02:37:33;96938.78;;;11.36;100.00
10348;BME280;5220;43.192;23.284;2023-03-31T02:40:04;96934.75;;;11.32;100.00
10348;BME280;5220;43.192;23.284;2023-03-31T02:42:36;96934.75;;;11.32;100.00
10348;BME280;5220;43.192;23.284;2023-03-31T02:45:04;96926.94;;;11.32;100.00
10348;BME280;5220;43.192;23.284;2023-03-31T02:47:32;96918.44;;;11.30;100.00
10348;BME280;5220;43.192;23.284;2023-03-31T02:50:00;96923.50;;;11.31;100.00
10348;BME280;5220;43.192;23.284;2023-03-31T02:52:41;96920.06;;;11.20;100.00
10348;BME280;5220;43.192;23.284;2023-03-31T02:55:40;96910.34;;;11.22;100.00
10348;BME280;5220;43.192;23.284;2023-03-31T02:58:34;96903.47;;;11.21;100.00
10348;BME280;5220;43.192;23.284;2023-03-31T03:01:21;96902.44;;;11.23;100.00
10348;BME280;5220;43.192;23.284;2023-03-31T03:03:59;96894.50;;;11.25;100.00
10348;BME280;5220;43.192;23.284;2023-03-31T03:06:40;96885.25;;;11.21;100.00
10348;BME280;5220;43.192;23.284;2023-03-31T03:09:20;96869.75;;;11.19;100.00
10348;BME280;5220;43.192;23.284;2023-03-31T03:12:04;96853.16;;;10.76;100.00
10348;BME280;5220;43.192;23.284;2023-03-31T03:14:39;96843.72;;;10.97;100.00
10348;BME280;5220;43.192;23.284;2023-03-31T03:17:14;96838.41;;;10.99;100.00
10348;BME280;5220;43.192;23.284;2023-03-31T03:19:43;96835.91;;;10.97;100.00
10348;BME280;5220;43.192;23.284;2023-03-31T03:22:09;96835.53;;;10.79;100.00
10348;BME280;5220;43.192;23.284;2023-03-31T03:24:36;96837.06;;;10.93;100.00
10348;BME280;5220;43.192;23.284;2023-03-31T03:27:04;96833.75;;;11.02;100.00
10348;BME280;5220;43.192;23.284;2023-03-31T03:29:30;96831.16;;;10.80;100.00
10348;BME280;5220;43.192;23.284;2023-03-31T03:31:58;96824.88;;;10.94;100.00
10348;BME280;5220;43.192;23.284;2023-03-31T03:34:25;96823.72;;;11.09;100.00
10348;BME280;5220;43.192;23.284;2023-03-31T03:36:52;96827.16;;;11.09;100.00
10348;BME280;5220;43.192;23.284;2023-03-31T03:39:19;96819.69;;;10.94;100.00
10348;BME280;5220;43.192;23.284;2023-03-31T03:41:46;96825.28;;;11.11;100.00
10348;BME280;5220;43.192;23.284;2023-03-31T03:44:12;96832.00;;;11.03;100.00
10348;BME280;5220;43.192;23.284;2023-03-31T03:46:39;96838.13;;;10.91;100.00
10348;BME280;5220;43.192;23.284;2023-03-31T03:49:07;96833.19;;;10.99;100.00
10348;BME280;5220;43.192;23.284;2023-03-31T03:51:34;96840.22;;;10.74;100.00
10348;BME280;5220;43.192;23.284;2023-03-31T03:54:01;96840.38;;;10.73;100.00
10348;BME280;5220;43.192;23.284;2023-03-31T03:56:27;96837.47;;;10.54;100.00
10348;BME280;5220;43.192;23.284;2023-03-31T03:58:54;96841.53;;;10.69;100.00
10348;BME280;5220;43.192;23.284;2023-03-31T04:01:22;96839.53;;;10.84;100.00
10348;BME280;5220;43.192;23.284;2023-03-31T04:03:49;96842.28;;;10.93;100.00
10348;BME280;5220;43.192;23.284;2023-03-31T04:06:17;96849.88;;;10.50;100.00
10348;BME280;5220;43.192;23.284;2023-03-31T04:08:44;96840.22;;;10.52;100.00
10348;BME280;5220;43.192;23.284;2023-03-31T04:11:13;96844.41;;;10.77;100.00
10348;BME280;5220;43.192;23.284;2023-03-31T04:13:41;96835.06;;;10.86;100.00
10348;BME280;5220;43.192;23.284;2023-03-31T04:16:08;96840.03;;;10.89;100.00
10348;BME280;5220;43.192;23.284;2023-03-31T04:18:35;96838.22;;;10.67;100.00
10348;BME280;5220;43.192;23.284;2023-03-31T04:21:07;96838.28;;;10.89;100.00
10348;BME280;5220;43.192;23.284;2023-03-31T04:23:38;96841.00;;;10.99;100.00
10348;BME280;5220;43.192;23.284;2023-03-31T04:26:11;96834.81;;;11.00;100.00
10348;BME280;5220;43.192;23.284;2023-03-31T04:28:38;96834.13;;;11.09;100.00
10348;BME280;5220;43.192;23.284;2023-03-31T04:31:08;96835.31;;;11.05;100.00
10348;BME280;5220;43.192;23.284;2023-03-31T04:33:39;96841.69;;;11.12;100.00
10348;BME280;5220;43.192;23.284;2023-03-31T04:36:10;96839.59;;;11.17;100.00
10348;BME280;5220;43.192;23.284;2023-03-31T04:38:43;96839.09;;;11.23;100.00
10348;BME280;5220;43.192;23.284;2023-03-31T04:41:11;96842.53;;;11.23;100.00
10348;BME280;5220;43.192;23.284;2023-03-31T04:43:38;96843.84;;;11.29;100.00
10348;BME280;5220;43.192;23.284;2023-03-31T04:46:05;96849.66;;;11.32;100.00
10348;BME280;5220;43.192;23.284;2023-03-31T04:48:31;96852.94;;;11.34;100.00
10348;BME280;5220;43.192;23.284;2023-03-31T04:50:58;96853.78;;;11.35;100.00
10348;BME280;5220;43.192;23.284;2023-03-31T04:53:25;96841.34;;;11.39;100.00
10348;BME280;5220;43.192;23.284;2023-03-31T04:55:53;96848.34;;;11.38;100.00
10348;BME280;5220;43.192;23.284;2023-03-31T04:58:20;96848.09;;;11.41;100.00
10348;BME280;5220;43.192;23.284;2023-03-31T05:00:47;96841.81;;;11.44;100.00
10348;BME280;5220;43.192;23.284;2023-03-31T05:03:14;96838.13;;;11.46;100.00
10348;BME280;5220;43.192;23.284;2023-03-31T05:05:41;96841.47;;;11.48;100.00
10348;BME280;5220;43.192;23.284;2023-03-31T05:08:07;96836.59;;;11.44;100.00
10348;BME280;5220;43.192;23.284;2023-03-31T05:10:35;96837.66;;;11.52;100.00
10348;BME280;5220;43.192;23.284;2023-03-31T05:13:03;96843.34;;;11.57;100.00
10348;BME280;5220;43.192;23.284;2023-03-31T05:15:30;96840.75;;;11.57;100.00
10348;BME280;5220;43.192;23.284;2023-03-31T05:17:57;96835.63;;;11.56;100.00
10348;BME280;5220;43.192;23.284;2023-03-31T05:20:24;96827.56;;;11.59;100.00
10348;BME280;5220;43.192;23.284;2023-03-31T05:22:50;96822.50;;;11.57;100.00
10348;BME280;5220;43.192;23.284;2023-03-31T05:25:17;96814.19;;;11.63;100.00
10348;BME280;5220;43.192;23.284;2023-03-31T05:27:45;96811.69;;;11.62;100.00
10348;BME280;5220;43.192;23.284;2023-03-31T05:30:15;96820.94;;;11.66;100.00
10348;BME280;5220;43.192;23.284;2023-03-31T05:32:42;96811.25;;;11.57;100.00
10348;BME280;5220;43.192;23.284;2023-03-31T05:35:09;96823.09;;;11.72;100.00
10348;BME280;5220;43.192;23.284;2023-03-31T05:37:36;96818.09;;;11.80;100.00
10348;BME280;5220;43.192;23.284;2023-03-31T05:40:03;96815.63;;;11.78;100.00
10348;BME280;5220;43.192;23.284;2023-03-31T05:42:32;96811.31;;;11.89;100.00
10348;BME280;5220;43.192;23.284;2023-03-31T05:44:59;96807.06;;;11.88;100.00
10348;BME280;5220;43.192;23.284;2023-03-31T05:47:27;96807.25;;;11.96;100.00
10348;BME280;5220;43.192;23.284;2023-03-31T05:49:54;96813.53;;;12.04;100.00
10348;BME280;5220;43.192;23.284;2023-03-31T05:52:20;96807.84;;;11.99;100.00
10348;BME280;5220;43.192;23.284;2023-03-31T05:54:47;96812.44;;;12.07;100.00
10348;BME280;5220;43.192;23.284;2023-03-31T05:57:14;96806.91;;;12.00;100.00
10348;BME280;5220;43.192;23.284;2023-03-31T05:59:41;96811.81;;;12.14;100.00
10348;BME280;5220;43.192;23.284;2023-03-31T06:02:10;96811.56;;;12.17;100.00
10348;BME280;5220;43.192;23.284;2023-03-31T06:04:39;96804.78;;;12.26;100.00
10348;BME280;5220;43.192;23.284;2023-03-31T06:07:06;96791.94;;;12.34;100.00
10348;BME280;5220;43.192;23.284;2023-03-31T06:09:34;96774.75;;;12.31;100.00
10348;BME280;5220;43.192;23.284;2023-03-31T06:12:02;96774.56;;;12.44;100.00
10348;BME280;5220;43.192;23.284;2023-03-31T06:14:29;96768.28;;;12.26;100.00
10348;BME280;5220;43.192;23.284;2023-03-31T06:16:56;96755.63;;;12.42;100.00
10348;BME280;5220;43.192;23.284;2023-03-31T06:19:22;96744.16;;;12.54;100.00
10348;BME280;5220;43.192;23.284;2023-03-31T06:21:51;96739.44;;;12.48;100.00
10348;BME280;5220;43.192;23.284;2023-03-31T06:24:17;96741.34;;;12.67;100.00
10348;BME280;5220;43.192;23.284;2023-03-31T06:26:44;96745.28;;;12.91;100.00
10348;BME280;5220;43.192;23.284;2023-03-31T06:29:11;96732.22;;;13.22;100.00
10348;BME280;5220;43.192;23.284;2023-03-31T06:31:37;96723.47;;;13.52;100.00
10348;BME280;5220;43.192;23.284;2023-03-31T06:34:04;96733.28;;;13.78;100.00
10348;BME280;5220;43.192;23.284;2023-03-31T06:36:31;96722.41;;;13.92;100.00
10348;BME280;5220;43.192;23.284;2023-03-31T06:38:59;96722.13;;;14.05;100.00
10348;BME280;5220;43.192;23.284;2023-03-31T06:41:26;96722.66;;;14.28;100.00
10348;BME280;5220;43.192;23.284;2023-03-31T06:43:53;96733.13;;;14.47;100.00
10348;BME280;5220;43.192;23.284;2023-03-31T06:46:19;96715.47;;;14.49;100.00
10348;BME280;5220;43.192;23.284;2023-03-31T06:48:46;96719.69;;;14.69;100.00
10348;BME280;5220;43.192;23.284;2023-03-31T06:51:17;96738.50;;;14.82;100.00
10348;BME280;5220;43.192;23.284;2023-03-31T06:53:43;96741.91;;;14.56;100.00
10348;BME280;5220;43.192;23.284;2023-03-31T06:56:11;96720.75;;;14.76;100.00
10348;BME280;5220;43.192;23.284;2023-03-31T06:58:38;96744.59;;;14.83;100.00
10348;BME280;5220;43.192;23.284;2023-03-31T07:01:05;96740.19;;;14.74;100.00
10348;BME280;5220;43.192;23.284;2023-03-31T07:03:32;96745.94;;;14.96;100.00
10348;BME280;5220;43.192;23.284;2023-03-31T07:05:59;96736.91;;;15.08;100.00
10348;BME280;5220;43.192;23.284;2023-03-31T07:08:26;96746.03;;;15.04;100.00
10348;BME280;5220;43.192;23.284;2023-03-31T07:10:55;96742.81;;;15.11;99.86
10348;BME280;5220;43.192;23.284;2023-03-31T07:13:23;96739.81;;;15.33;97.20
10348;BME280;5220;43.192;23.284;2023-03-31T07:15:51;96735.28;;;15.35;97.39
10348;BME280;5220;43.192;23.284;2023-03-31T07:18:18;96727.19;;;15.46;96.92
10348;BME280;5220;43.192;23.284;2023-03-31T07:20:47;96741.69;;;15.50;90.48
10348;BME280;5220;43.192;23.284;2023-03-31T07:23:14;96738.41;;;15.66;92.11
10348;BME280;5220;43.192;23.284;2023-03-31T07:25:41;96746.28;;;15.66;89.13
10348;BME280;5220;43.192;23.284;2023-03-31T07:28:09;96746.97;;;15.85;87.87
10348;BME280;5220;43.192;23.284;2023-03-31T07:30:39;96735.50;;;15.86;86.46
10348;BME280;5220;43.192;23.284;2023-03-31T07:33:06;96722.16;;;15.97;79.58
10348;BME280;5220;43.192;23.284;2023-03-31T07:35:36;96737.59;;;16.00;76.58
10348;BME280;5220;43.192;23.284;2023-03-31T07:38:03;96735.63;;;16.20;80.72
10348;BME280;5220;43.192;23.284;2023-03-31T07:40:30;96734.13;;;16.18;81.98
10348;BME280;5220;43.192;23.284;2023-03-31T07:42:57;96725.78;;;16.22;81.84
10348;BME280;5220;43.192;23.284;2023-03-31T07:45:25;96723.84;;;16.24;71.03
10348;BME280;5220;43.192;23.284;2023-03-31T07:47:53;96723.59;;;16.35;75.66
10348;BME280;5220;43.192;23.284;2023-03-31T07:50:21;96721.53;;;16.03;71.42
10348;BME280;5220;43.192;23.284;2023-03-31T07:52:48;96712.19;;;16.01;73.04
10348;BME280;5220;43.192;23.284;2023-03-31T07:55:15;96720.22;;;15.99;70.88
10348;BME280;5220;43.192;23.284;2023-03-31T07:57:42;96719.75;;;15.86;73.70
10348;BME280;5220;43.192;23.284;2023-03-31T08:00:11;96716.47;;;15.84;75.86
10348;BME280;5220;43.192;23.284;2023-03-31T08:02:38;96710.28;;;16.11;85.01
10348;BME280;5220;43.192;23.284;2023-03-31T08:05:08;96716.22;;;16.13;75.89
10348;BME280;5220;43.192;23.284;2023-03-31T08:07:36;96707.16;;;16.07;75.48
10348;BME280;5220;43.192;23.284;2023-03-31T08:10:04;96705.59;;;16.40;74.97
10348;BME280;5220;43.192;23.284;2023-03-31T08:12:31;96700.75;;;16.28;75.63
10348;BME280;5220;43.192;23.284;2023-03-31T08:14:57;96698.28;;;16.26;68.06
10348;BME280;5220;43.192;23.284;2023-03-31T08:17:24;96701.47;;;16.38;71.83
10348;BME280;5220;43.192;23.284;2023-03-31T08:19:51;96701.84;;;16.43;67.09
10348;BME280;5220;43.192;23.284;2023-03-31T08:22:19;96702.00;;;16.59;67.98
10348;BME280;5220;43.192;23.284;2023-03-31T08:24:48;96692.78;;;16.37;64.32
10348;BME280;5220;43.192;23.284;2023-03-31T08:27:16;96696.16;;;16.30;62.19
10348;BME280;5220;43.192;23.284;2023-03-31T08:29:43;96690.13;;;16.11;61.24
10348;BME280;5220;43.192;23.284;2023-03-31T08:32:09;96697.22;;;16.19;61.61
10348;BME280;5220;43.192;23.284;2023-03-31T08:34:36;96702.16;;;15.96;60.97
10348;BME280;5220;43.192;23.284;2023-03-31T08:37:07;96693.59;;;16.12;63.74
10348;BME280;5220;43.192;23.284;2023-03-31T08:39:35;96688.47;;;16.28;64.24
10348;BME280;5220;43.192;23.284;2023-03-31T08:42:04;96688.00;;;16.33;63.96
10348;BME280;5220;43.192;23.284;2023-03-31T08:44:34;96693.97;;;16.43;66.12
10348;BME280;5220;43.192;23.284;2023-03-31T08:47:05;96690.81;;;16.39;62.82
10348;BME280;5220;43.192;23.284;2023-03-31T08:49:39;96682.19;;;16.47;62.39
10348;BME280;5220;43.192;23.284;2023-03-31T08:52:11;96689.81;;;16.58;60.43
10348;BME280;5220;43.192;23.284;2023-03-31T08:54:42;96681.56;;;16.53;59.21
10348;BME280;5220;43.192;23.284;2023-03-31T08:57:14;96681.88;;;16.76;57.12
10348;BME280;5220;43.192;23.284;2023-03-31T08:59:43;96681.50;;;16.96;62.57
10348;BME280;5220;43.192;23.284;2023-03-31T09:02:19;96678.09;;;17.12;59.35
10348;BME280;5220;43.192;23.284;2023-03-31T09:05:02;96688.66;;;17.28;59.90
10348;BME280;5220;43.192;23.284;2023-03-31T09:07:36;96695.88;;;17.26;57.68
10348;BME280;5220;43.192;23.284;2023-03-31T09:10:21;96682.78;;;17.50;61.72
10348;BME280;5220;43.192;23.284;2023-03-31T09:12:55;96680.28;;;17.33;56.85
10348;BME280;5220;43.192;23.284;2023-03-31T09:15:25;96681.63;;;17.45;55.43
10348;BME280;5220;43.192;23.284;2023-03-31T09:17:54;96683.25;;;17.22;55.16
10348;BME280;5220;43.192;23.284;2023-03-31T09:20:25;96675.19;;;17.31;56.68
10348;BME280;5220;43.192;23.284;2023-03-31T09:23:00;96675.22;;;17.39;55.91
10348;BME280;5220;43.192;23.284;2023-03-31T09:25:33;96675.41;;;17.46;53.94
10348;BME280;5220;43.192;23.284;2023-03-31T09:28:03;96669.00;;;17.48;55.30
10348;BME280;5220;43.192;23.284;2023-03-31T09:30:35;96672.47;;;17.49;55.89
10348;BME280;5220;43.192;23.284;2023-03-31T09:33:11;96674.97;;;17.66;55.29
10348;BME280;5220;43.192;23.284;2023-03-31T09:35:40;96675.81;;;17.75;55.12
10348;BME280;5220;43.192;23.284;2023-03-31T09:38:08;96681.41;;;17.80;55.55
10348;BME280;5220;43.192;23.284;2023-03-31T09:40:38;96677.81;;;17.89;52.71
10348;BME280;5220;43.192;23.284;2023-03-31T09:43:07;96677.94;;;17.88;53.06
10348;BME280;5220;43.192;23.284;2023-03-31T09:45:36;96670.69;;;17.57;53.11
10348;BME280;5220;43.192;23.284;2023-03-31T09:48:05;96674.72;;;17.36;53.71
10348;BME280;5220;43.192;23.284;2023-03-31T09:50:40;96669.06;;;17.72;62.44
10348;BME280;5220;43.192;23.284;2023-03-31T09:53:15;96669.72;;;17.83;56.57
10348;BME280;5220;43.192;23.284;2023-03-31T09:55:49;96674.84;;;18.00;54.64
10348;BME280;5220;43.192;23.284;2023-03-31T09:58:17;96662.19;;;18.12;54.34
10348;BME280;5220;43.192;23.284;2023-03-31T10:00:56;96661.34;;;18.19;54.99
10348;BME280;5220;43.192;23.284;2023-03-31T10:03:24;96657.72;;;18.20;52.52
10348;BME280;5220;43.192;23.284;2023-03-31T10:05:54;96646.72;;;18.09;51.16
10348;BME280;5220;43.192;23.284;2023-03-31T10:08:26;96651.13;;;18.00;52.26
10348;BME280;5220;43.192;23.284;2023-03-31T10:11:05;96638.47;;;17.88;50.70
10348;BME280;5220;43.192;23.284;2023-03-31T10:13:39;96636.00;;;18.10;53.14
10348;BME280;5220;43.192;23.284;2023-03-31T10:16:11;96641.56;;;18.40;51.41
10348;BME280;5220;43.192;23.284;2023-03-31T10:18:40;96645.69;;;18.42;52.19
10348;BME280;5220;43.192;23.284;2023-03-31T10:21:23;96635.44;;;18.47;51.79
10348;BME280;5220;43.192;23.284;2023-03-31T10:23:51;96645.00;;;18.40;52.11
10348;BME280;5220;43.192;23.284;2023-03-31T10:26:20;96638.25;;;18.38;52.76
10348;BME280;5220;43.192;23.284;2023-03-31T10:28:49;96647.97;;;18.45;51.77
10348;BME280;5220;43.192;23.284;2023-03-31T10:31:17;96639.72;;;18.40;51.81
10348;BME280;5220;43.192;23.284;2023-03-31T10:33:47;96632.50;;;18.42;51.32
10348;BME280;5220;43.192;23.284;2023-03-31T10:36:20;96635.97;;;18.51;52.11
10348;BME280;5220;43.192;23.284;2023-03-31T10:38:49;96618.16;;;18.53;51.75
10348;BME280;5220;43.192;23.284;2023-03-31T10:41:20;96617.44;;;18.75;50.70
10348;BME280;5220;43.192;23.284;2023-03-31T10:43:49;96607.03;;;18.82;49.87
10348;BME280;5220;43.192;23.284;2023-03-31T10:46:16;96612.72;;;19.01;49.16
10348;BME280;5220;43.192;23.284;2023-03-31T10:48:43;96613.72;;;19.00;48.51
10348;BME280;5220;43.192;23.284;2023-03-31T10:51:15;96608.41;;;19.08;48.84
10348;BME280;5220;43.192;23.284;2023-03-31T10:53:43;96610.66;;;19.19;47.22
10348;BME280;5220;43.192;23.284;2023-03-31T10:56:22;96611.88;;;19.40;46.88
10348;BME280;5220;43.192;23.284;2023-03-31T10:59:05;96612.09;;;19.53;46.86
10348;BME280;5220;43.192;23.284;2023-03-31T11:01:45;96597.28;;;19.52;49.22
10348;BME280;5220;43.192;23.284;2023-03-31T11:04:37;96590.13;;;19.83;46.67
10348;BME280;5220;43.192;23.284;2023-03-31T11:07:14;96595.22;;;19.62;47.15
10348;BME280;5220;43.192;23.284;2023-03-31T11:09:54;96590.28;;;19.36;47.93
10348;BME280;5220;43.192;23.284;2023-03-31T11:12:26;96586.63;;;19.37;46.85
10348;BME280;5220;43.192;23.284;2023-03-31T11:15:04;96576.56;;;19.41;46.38
10348;BME280;5220;43.192;23.284;2023-03-31T11:18:02;96574.88;;;19.70;46.92
10348;BME280;5220;43.192;23.284;2023-03-31T11:20:37;96578.03;;;19.66;47.37
10348;BME280;5220;43.192;23.284;2023-03-31T11:23:13;96572.75;;;19.89;47.60
10348;BME280;5220;43.192;23.284;2023-03-31T11:25:47;96562.53;;;19.85;45.42
10348;BME280;5220;43.192;23.284;2023-03-31T11:28:31;96559.06;;;19.85;46.13
10348;BME280;5220;43.192;23.284;2023-03-31T11:31:13;96555.78;;;19.46;46.53
10348;BME280;5220;43.192;23.284;2023-03-31T11:34:00;96553.66;;;19.64;48.28
10348;BME280;5220;43.192;23.284;2023-03-31T11:36:46;96548.75;;;19.75;47.83
10348;BME280;5220;43.192;23.284;2023-03-31T11:39:29;96545.25;;;19.83;44.86
10348;BME280;5220;43.192;23.284;2023-03-31T11:42:00;96538.38;;;19.74;45.59
10348;BME280;5220;43.192;23.284;2023-03-31T11:44:37;96534.09;;;19.73;45.59
10348;BME280;5220;43.192;23.284;2023-03-31T11:47:09;96527.28;;;19.64;44.90
10348;BME280;5220;43.192;23.284;2023-03-31T11:49:39;96527.50;;;19.54;45.65
10348;BME280;5220;43.192;23.284;2023-03-31T11:52:13;96523.19;;;19.30;45.23
10348;BME280;5220;43.192;23.284;2023-03-31T11:54:44;96518.00;;;19.22;46.24
10348;BME280;5220;43.192;23.284;2023-03-31T11:57:16;96515.00;;;19.25;45.72
10348;BME280;5220;43.192;23.284;2023-03-31T11:59:51;96510.59;;;19.18;46.53
10348;BME280;5220;43.192;23.284;2023-03-31T12:02:23;96514.63;;;19.06;44.90
10348;BME280;5220;43.192;23.284;2023-03-31T12:04:58;96510.19;;;19.06;44.60
10348;BME280;5220;43.192;23.284;2023-03-31T12:07:28;96509.31;;;19.14;44.93
10348;BME280;5220;43.192;23.284;2023-03-31T12:09:59;96504.81;;;19.22;46.24
10348;BME280;5220;43.192;23.284;2023-03-31T12:12:32;96494.81;;;19.41;45.99
10348;BME280;5220;43.192;23.284;2023-03-31T12:15:09;96493.19;;;19.40;44.66
10348;BME280;5220;43.192;23.284;2023-03-31T12:17:39;96499.13;;;19.11;45.00
10348;BME280;5220;43.192;23.284;2023-03-31T12:20:13;96498.19;;;19.04;44.93
10348;BME280;5220;43.192;23.284;2023-03-31T12:22:44;96484.31;;;19.10;44.56
10348;BME280;5220;43.192;23.284;2023-03-31T12:25:14;96485.59;;;19.14;44.47
10348;BME280;5220;43.192;23.284;2023-03-31T12:27:42;96479.97;;;19.17;47.03
10348;BME280;5220;43.192;23.284;2023-03-31T12:30:19;96480.94;;;19.61;47.21
10348;BME280;5220;43.192;23.284;2023-03-31T12:32:52;96471.41;;;19.75;46.41
10348;BME280;5220;43.192;23.284;2023-03-31T12:35:20;96469.63;;;19.53;44.27
10348;BME280;5220;43.192;23.284;2023-03-31T12:38:26;96469.53;;;19.46;45.29
10348;BME280;5220;43.192;23.284;2023-03-31T12:41:06;96464.03;;;19.10;45.34
10348;BME280;5220;43.192;23.284;2023-03-31T12:43:53;96466.91;;;19.23;46.31
10348;BME280;5220;43.192;23.284;2023-03-31T12:46:41;96465.38;;;19.52;45.03
10348;BME280;5220;43.192;23.284;2023-03-31T12:49:29;96463.34;;;19.54;45.60
10348;BME280;5220;43.192;23.284;2023-03-31T12:52:01;96449.44;;;19.60;43.96
10348;BME280;5220;43.192;23.284;2023-03-31T12:54:53;96443.09;;;19.69;43.56
10348;BME280;5220;43.192;23.284;2023-03-31T12:57:26;96428.00;;;19.92;43.84
10348;BME280;5220;43.192;23.284;2023-03-31T13:00:17;96438.53;;;20.21;43.02
10348;BME280;5220;43.192;23.284;2023-03-31T13:02:47;96444.38;;;19.88;43.83
10348;BME280;5220;43.192;23.284;2023-03-31T13:05:44;96421.78;;;20.00;43.65
10348;BME280;5220;43.192;23.284;2023-03-31T13:08:53;96428.81;;;20.07;42.37
10348;BME280;5220;43.192;23.284;2023-03-31T13:11:21;96418.41;;;20.20;42.51
10348;BME280;5220;43.192;23.284;2023-03-31T13:14:01;96405.31;;;19.98;43.18
10348;BME280;5220;43.192;23.284;2023-03-31T13:16:30;96385.84;;;19.99;43.62
10348;BME280;5220;43.192;23.284;2023-03-31T13:18:58;96382.19;;;20.00;43.84
10348;BME280;5220;43.192;23.284;2023-03-31T13:21:26;96374.47;;;19.98;43.85
10348;BME280;5220;43.192;23.284;2023-03-31T13:23:58;96378.09;;;19.97;43.51
10348;BME280;5220;43.192;23.284;2023-03-31T13:26:36;96362.44;;;19.81;43.52